sensor_id;sensor_type;location;lat;lon;timestamp;pressure;altitude;pressure_sealevel;temperature;humidity
10176;BME280;18221;38.704;0.152;2023-06-22T00:01:02;98828.59;;;28.60;46.69
10176;BME280;18221;38.704;0.152;2023-06-22T00:03:31;98823.81;;;28.45;47.08
10176;BME280;18221;38.704;0.152;2023-06-22T00:05:59;98828.25;;;28.51;46.62
10176;BME280;18221;38.704;0.152;2023-06-22T00:08:26;98831.13;;;28.40;46.80
10176;BME280;18221;38.704;0.152;2023-06-22T00:10:56;98823.16;;;28.33;46.90
10176;BME280;18221;38.704;0.152;2023-06-22T00:13:24;98822.66;;;28.36;46.82
10176;BME280;18221;38.704;0.152;2023-06-22T00:15:52;98828.34;;;28.35;46.81
10176;BME280;18221;38.704;0.152;2023-06-22T00:18:20;98827.00;;;28.37;46.89
10176;BME280;18221;38.704;0.152;2023-06-22T00:20:48;98827.66;;;28.44;46.92
10176;BME280;18221;38.704;0.152;2023-06-22T00:23:16;98830.25;;;28.34;47.16
10176;BME280;18221;38.704;0.152;2023-06-22T00:25:44;98830.31;;;28.12;47.83
10176;BME280;18221;38.704;0.152;2023-06-22T00:28:14;98829.50;;;28.12;47.99
10176;BME280;18221;38.704;0.152;2023-06-22T00:30:42;98825.94;;;28.11;47.95
10176;BME280;18221;38.704;0.152;2023-06-22T00:33:10;98821.91;;;28.19;47.36
10176;BME280;18221;38.704;0.152;2023-06-22T00:35:38;98819.69;;;28.16;47.13
10176;BME280;18221;38.704;0.152;2023-06-22T00:38:07;98819.13;;;28.14;46.96
10176;BME280;18221;38.704;0.152;2023-06-22T00:40:35;98822.13;;;28.12;46.33
10176;BME280;18221;38.704;0.152;2023-06-22T00:43:04;98827.22;;;28.04;46.36
10176;BME280;18221;38.704;0.152;2023-06-22T00:45:34;98822.09;;;28.07;46.37
10176;BME280;18221;38.704;0.152;2023-06-22T00:48:03;98823.81;;;28.18;45.65
10176;BME280;18221;38.704;0.152;2023-06-22T00:50:33;98813.78;;;28.24;45.55
10176;BME280;18221;38.704;0.152;2023-06-22T00:53:04;98821.00;;;28.35;45.71
10176;BME280;18221;38.704;0.152;2023-06-22T00:55:36;98811.47;;;28.38;45.18
10176;BME280;18221;38.704;0.152;2023-06-22T00:58:06;98815.53;;;28.35;45.38
10176;BME280;18221;38.704;0.152;2023-06-22T01:00:38;98817.47;;;28.40;45.08
10176;BME280;18221;38.704;0.152;2023-06-22T01:03:07;98810.63;;;28.37;44.98
10176;BME280;18221;38.704;0.152;2023-06-22T01:05:37;98810.91;;;28.36;45.19
10176;BME280;18221;38.704;0.152;2023-06-22T01:08:20;98804.66;;;28.40;45.04
10176;BME280;18221;38.704;0.152;2023-06-22T01:10:57;98803.81;;;28.40;45.16
10176;BME280;18221;38.704;0.152;2023-06-22T01:13:35;98801.88;;;28.35;44.91
10176;BME280;18221;38.704;0.152;2023-06-22T01:16:13;98801.81;;;28.30;44.96
10176;BME280;18221;38.704;0.152;2023-06-22T01:18:43;98805.03;;;28.22;45.44
10176;BME280;18221;38.704;0.152;2023-06-22T01:21:18;98804.19;;;28.22;45.54
10176;BME280;18221;38.704;0.152;2023-06-22T01:24:04;98804.00;;;28.28;45.52
10176;BME280;18221;38.704;0.152;2023-06-22T01:26:43;98806.69;;;28.23;45.33
10176;BME280;18221;38.704;0.152;2023-06-22T01:29:23;98797.09;;;28.21;44.83
10176;BME280;18221;38.704;0.152;2023-06-22T01:31:54;98799.25;;;28.18;44.78
10176;BME280;18221;38.704;0.152;2023-06-22T01:34:25;98792.94;;;28.13;44.85
10176;BME280;18221;38.704;0.152;2023-06-22T01:36:53;98796.69;;;28.07;44.75
10176;BME280;18221;38.704;0.152;2023-06-22T01:39:22;98805.03;;;28.00;44.67
10176;BME280;18221;38.704;0.152;2023-06-22T01:41:51;98806.13;;;27.99;44.58
10176;BME280;18221;38.704;0.152;2023-06-22T01:44:21;98800.91;;;27.98;44.52
10176;BME280;18221;38.704;0.152;2023-06-22T01:46:51;98800.63;;;27.94;44.37
10176;BME280;18221;38.704;0.152;2023-06-22T01:49:19;98799.78;;;27.94;44.15
10176;BME280;18221;38.704;0.152;2023-06-22T01:51:47;98798.44;;;27.96;43.77
10176;BME280;18221;38.704;0.152;2023-06-22T01:54:15;98791.03;;;27.92;43.84
10176;BME280;18221;38.704;0.152;2023-06-22T01:56:43;98796.00;;;27.95;44.03
10176;BME280;18221;38.704;0.152;2023-06-22T01:59:19;98791.66;;;27.99;44.21
10176;BME280;18221;38.704;0.152;2023-06-22T02:01:56;98797.63;;;27.96;44.29
10176;BME280;18221;38.704;0.152;2023-06-22T02:04:31;98793.31;;;28.00;44.74
10176;BME280;18221;38.704;0.152;2023-06-22T02:07:05;98792.56;;;28.04;44.88
10176;BME280;18221;38.704;0.152;2023-06-22T02:09:37;98793.31;;;28.00;45.89
10176;BME280;18221;38.704;0.152;2023-06-22T02:12:08;98791.38;;;28.00;46.25
10176;BME280;18221;38.704;0.152;2023-06-22T02:14:39;98791.66;;;27.99;46.52
10176;BME280;18221;38.704;0.152;2023-06-22T02:17:11;98793.63;;;28.03;46.86
10176;BME280;18221;38.704;0.152;2023-06-22T02:19:41;98792.84;;;28.08;47.24
10176;BME280;18221;38.704;0.152;2023-06-22T02:22:09;98799.75;;;28.10;47.37
10176;BME280;18221;38.704;0.152;2023-06-22T02:24:38;98797.06;;;28.15;47.56
10176;BME280;18221;38.704;0.152;2023-06-22T02:27:07;98803.38;;;28.21;47.14
10176;BME280;18221;38.704;0.152;2023-06-22T02:29:35;98798.19;;;28.20;47.67
10176;BME280;18221;38.704;0.152;2023-06-22T02:32:03;98805.25;;;28.15;47.59
10176;BME280;18221;38.704;0.152;2023-06-22T02:34:33;98799.00;;;28.20;47.49
10176;BME280;18221;38.704;0.152;2023-06-22T02:37:03;98797.63;;;28.17;47.52
10176;BME280;18221;38.704;0.152;2023-06-22T02:39:31;98798.19;;;28.20;47.85
10176;BME280;18221;38.704;0.152;2023-06-22T02:42:00;98801.41;;;28.16;47.71
10176;BME280;18221;38.704;0.152;2023-06-22T02:44:28;98804.09;;;28.11;48.08
10176;BME280;18221;38.704;0.152;2023-06-22T02:46:56;98803.28;;;28.11;48.29
10176;BME280;18221;38.704;0.152;2023-06-22T02:49:24;98810.34;;;28.07;47.89
10176;BME280;18221;38.704;0.152;2023-06-22T02:51:54;98801.38;;;28.11;47.93
10176;BME280;18221;38.704;0.152;2023-06-22T02:54:22;98804.38;;;28.10;48.11
10176;BME280;18221;38.704;0.152;2023-06-22T02:56:50;98799.41;;;28.07;48.00
10176;BME280;18221;38.704;0.152;2023-06-22T02:59:18;98806.25;;;28.09;47.85
10176;BME280;18221;38.704;0.152;2023-06-22T03:01:49;98803.78;;;28.08;47.68
10176;BME280;18221;38.704;0.152;2023-06-22T03:04:18;98806.59;;;28.13;47.62
10176;BME280;18221;38.704;0.152;2023-06-22T03:06:46;98807.16;;;28.15;47.26
10176;BME280;18221;38.704;0.152;2023-06-22T03:09:19;98804.94;;;28.12;47.34
10176;BME280;18221;38.704;0.152;2023-06-22T03:11:48;98807.84;;;28.05;46.87
10176;BME280;18221;38.704;0.152;2023-06-22T03:14:15;98807.34;;;28.08;46.88
10176;BME280;18221;38.704;0.152;2023-06-22T03:16:43;98807.06;;;28.05;46.62
10176;BME280;18221;38.704;0.152;2023-06-22T03:19:12;98808.44;;;28.07;46.23
10176;BME280;18221;38.704;0.152;2023-06-22T03:21:40;98815.47;;;28.03;45.84
10176;BME280;18221;38.704;0.152;2023-06-22T03:24:08;98806.13;;;27.99;45.94
10176;BME280;18221;38.704;0.152;2023-06-22T03:26:38;98806.97;;;28.00;45.43
10176;BME280;18221;38.704;0.152;2023-06-22T03:29:05;98808.94;;;28.04;45.19
10176;BME280;18221;38.704;0.152;2023-06-22T03:31:33;98814.31;;;27.99;45.32
10176;BME280;18221;38.704;0.152;2023-06-22T03:34:01;98813.16;;;27.95;45.09
10176;BME280;18221;38.704;0.152;2023-06-22T03:36:29;98814.31;;;27.99;45.28
10176;BME280;18221;38.704;0.152;2023-06-22T03:38:57;98812.19;;;28.01;45.06
10176;BME280;18221;38.704;0.152;2023-06-22T03:41:25;98819.31;;;28.02;45.41
10176;BME280;18221;38.704;0.152;2023-06-22T03:43:55;98828.06;;;28.04;45.27
10176;BME280;18221;38.704;0.152;2023-06-22T03:46:22;98826.88;;;28.00;45.54
10176;BME280;18221;38.704;0.152;2023-06-22T03:48:51;98829.59;;;28.00;45.73
10176;BME280;18221;38.704;0.152;2023-06-22T03:51:19;98829.69;;;28.05;45.83
10176;BME280;18221;38.704;0.152;2023-06-22T03:53:46;98834.63;;;28.08;46.12
10176;BME280;18221;38.704;0.152;2023-06-22T03:56:15;98827.84;;;28.11;45.91
10176;BME280;18221;38.704;0.152;2023-06-22T03:58:46;98830.56;;;28.11;45.79
10176;BME280;18221;38.704;0.152;2023-06-22T04:01:16;98835.22;;;28.10;45.57
10176;BME280;18221;38.704;0.152;2023-06-22T04:03:44;98834.13;;;28.11;45.63
10176;BME280;18221;38.704;0.152;2023-06-22T04:06:14;98842.59;;;28.10;45.79
10176;BME280;18221;38.704;0.152;2023-06-22T04:08:42;98845.56;;;28.08;45.61
10176;BME280;18221;38.704;0.152;2023-06-22T04:11:10;98834.97;;;28.12;45.66
10176;BME280;18221;38.704;0.152;2023-06-22T04:13:38;98843.41;;;28.10;45.66
10176;BME280;18221;38.704;0.152;2023-06-22T04:16:06;98852.69;;;28.09;45.34
10176;BME280;18221;38.704;0.152;2023-06-22T04:18:35;98849.91;;;28.04;45.74
10176;BME280;18221;38.704;0.152;2023-06-22T04:21:04;98839.81;;;28.05;45.59
10176;BME280;18221;38.704;0.152;2023-06-22T04:23:32;98844.94;;;28.01;45.57
10176;BME280;18221;38.704;0.152;2023-06-22T04:26:00;98852.06;;;28.02;45.51
10176;BME280;18221;38.704;0.152;2023-06-22T04:28:28;98847.91;;;28.00;45.51
10176;BME280;18221;38.704;0.152;2023-06-22T04:31:01;98855.50;;;27.98;45.77
10176;BME280;18221;38.704;0.152;2023-06-22T04:33:29;98857.44;;;27.97;45.16
10176;BME280;18221;38.704;0.152;2023-06-22T04:35:59;98860.16;;;27.97;45.43
10176;BME280;18221;38.704;0.152;2023-06-22T04:38:28;98865.09;;;28.00;45.71
10176;BME280;18221;38.704;0.152;2023-06-22T04:40:59;98859.34;;;27.97;45.58
10176;BME280;18221;38.704;0.152;2023-06-22T04:43:28;98861.72;;;27.93;45.86
10176;BME280;18221;38.704;0.152;2023-06-22T04:45:57;98865.22;;;27.89;46.24
10176;BME280;18221;38.704;0.152;2023-06-22T04:48:30;98864.13;;;27.90;45.97
10176;BME280;18221;38.704;0.152;2023-06-22T04:51:01;98873.72;;;27.92;46.00
10176;BME280;18221;38.704;0.152;2023-06-22T04:53:31;98872.09;;;27.91;46.27
10176;BME280;18221;38.704;0.152;2023-06-22T04:55:59;98872.59;;;27.88;46.20
10176;BME280;18221;38.704;0.152;2023-06-22T04:58:27;98874.25;;;27.89;46.54
10176;BME280;18221;38.704;0.152;2023-06-22T05:00:58;98884.91;;;27.91;46.47
10176;BME280;18221;38.704;0.152;2023-06-22T05:03:26;98878.66;;;27.95;46.34
10176;BME280;18221;38.704;0.152;2023-06-22T05:05:54;98878.16;;;27.98;46.26
10176;BME280;18221;38.704;0.152;2023-06-22T05:08:24;98882.78;;;27.98;46.39
10176;BME280;18221;38.704;0.152;2023-06-22T05:10:55;98882.28;;;28.01;46.08
10176;BME280;18221;38.704;0.152;2023-06-22T05:13:23;98884.72;;;27.97;46.21
10176;BME280;18221;38.704;0.152;2023-06-22T05:15:52;98889.66;;;28.00;46.27
10176;BME280;18221;38.704;0.152;2023-06-22T05:18:28;98894.25;;;27.95;46.05
10176;BME280;18221;38.704;0.152;2023-06-22T05:20:58;98899.38;;;27.91;46.62
10176;BME280;18221;38.704;0.152;2023-06-22T05:23:28;98903.69;;;27.87;46.49
10176;BME280;18221;38.704;0.152;2023-06-22T05:25:56;98898.28;;;27.92;46.43
10176;BME280;18221;38.704;0.152;2023-06-22T05:28:24;98904.34;;;27.94;46.57
10176;BME280;18221;38.704;0.152;2023-06-22T05:30:53;98907.63;;;27.96;46.56
10176;BME280;18221;38.704;0.152;2023-06-22T05:33:21;98908.75;;;28.00;46.13
10176;BME280;18221;38.704;0.152;2023-06-22T05:35:49;98912.69;;;28.04;45.68
10176;BME280;18221;38.704;0.152;2023-06-22T05:38:17;98920.88;;;28.04;46.00
10176;BME280;18221;38.704;0.152;2023-06-22T05:40:46;98924.44;;;28.05;46.20
10176;BME280;18221;38.704;0.152;2023-06-22T05:43:14;98933.31;;;28.00;46.51
10176;BME280;18221;38.704;0.152;2023-06-22T05:45:42;98940.47;;;28.01;46.35
10176;BME280;18221;38.704;0.152;2023-06-22T05:48:10;98936.31;;;27.99;45.71
10176;BME280;18221;38.704;0.152;2023-06-22T05:50:38;98939.53;;;27.96;45.54
10176;BME280;18221;38.704;0.152;2023-06-22T05:53:06;98938.66;;;27.90;45.67
10176;BME280;18221;38.704;0.152;2023-06-22T05:55:34;98948.56;;;27.96;45.67
10176;BME280;18221;38.704;0.152;2023-06-22T05:58:04;98938.06;;;28.05;46.13
10176;BME280;18221;38.704;0.152;2023-06-22T06:00:32;98946.31;;;28.10;45.96
10176;BME280;18221;38.704;0.152;2023-06-22T06:03:00;98950.25;;;28.19;46.09
10176;BME280;18221;38.704;0.152;2023-06-22T06:05:29;98955.19;;;28.22;46.34
10176;BME280;18221;38.704;0.152;2023-06-22T06:07:57;98962.13;;;28.30;45.97
10176;BME280;18221;38.704;0.152;2023-06-22T06:10:26;98959.31;;;28.25;44.51
10176;BME280;18221;38.704;0.152;2023-06-22T06:12:54;98964.22;;;28.23;43.72
10176;BME280;18221;38.704;0.152;2023-06-22T06:15:23;98967.06;;;28.33;42.48
10176;BME280;18221;38.704;0.152;2023-06-22T06:17:52;98976.38;;;28.37;42.23
10176;BME280;18221;38.704;0.152;2023-06-22T06:20:23;98974.88;;;28.46;41.73
10176;BME280;18221;38.704;0.152;2023-06-22T06:22:52;98975.81;;;28.56;41.49
10176;BME280;18221;38.704;0.152;2023-06-22T06:25:20;98975.03;;;28.61;41.43
10176;BME280;18221;38.704;0.152;2023-06-22T06:27:50;98981.16;;;28.68;40.36
10176;BME280;18221;38.704;0.152;2023-06-22T06:30:19;98981.78;;;28.75;40.27
10176;BME280;18221;38.704;0.152;2023-06-22T06:32:52;98982.34;;;28.77;40.30
10176;BME280;18221;38.704;0.152;2023-06-22T06:35:20;98993.06;;;28.84;39.79
10176;BME280;18221;38.704;0.152;2023-06-22T06:37:50;98991.47;;;28.88;39.44
10176;BME280;18221;38.704;0.152;2023-06-22T06:40:19;98991.81;;;28.91;38.71
10176;BME280;18221;38.704;0.152;2023-06-22T06:42:48;99001.44;;;28.99;38.97
10176;BME280;18221;38.704;0.152;2023-06-22T06:45:18;99006.13;;;29.03;37.53
10176;BME280;18221;38.704;0.152;2023-06-22T06:47:46;99001.25;;;29.10;37.33
10176;BME280;18221;38.704;0.152;2023-06-22T06:50:17;99010.63;;;29.14;36.21
10176;BME280;18221;38.704;0.152;2023-06-22T06:52:45;99018.41;;;29.27;36.24
10176;BME280;18221;38.704;0.152;2023-06-22T06:55:13;99022.81;;;29.33;35.29
10176;BME280;18221;38.704;0.152;2023-06-22T06:57:42;99025.13;;;29.47;35.30
10176;BME280;18221;38.704;0.152;2023-06-22T07:00:12;99019.41;;;29.48;33.59
10176;BME280;18221;38.704;0.152;2023-06-22T07:02:43;99029.56;;;29.53;33.23
10176;BME280;18221;38.704;0.152;2023-06-22T07:05:12;99030.31;;;29.43;31.84
10176;BME280;18221;38.704;0.152;2023-06-22T07:07:41;99036.97;;;29.57;31.85
10176;BME280;18221;38.704;0.152;2023-06-22T07:10:11;99031.59;;;29.67;32.50
10176;BME280;18221;38.704;0.152;2023-06-22T07:12:41;99032.94;;;29.65;31.41
10176;BME280;18221;38.704;0.152;2023-06-22T07:15:10;99039.06;;;29.77;31.55
10176;BME280;18221;38.704;0.152;2023-06-22T07:17:39;99035.16;;;29.68;29.87
10176;BME280;18221;38.704;0.152;2023-06-22T07:20:09;99032.44;;;29.73;29.95
10176;BME280;18221;38.704;0.152;2023-06-22T07:22:39;99026.28;;;29.82;30.64
10176;BME280;18221;38.704;0.152;2023-06-22T07:25:09;99033.59;;;29.77;30.03
10176;BME280;18221;38.704;0.152;2023-06-22T07:27:45;99042.97;;;29.86;30.19
10176;BME280;18221;38.704;0.152;2023-06-22T07:30:14;99039.69;;;29.84;30.13
10176;BME280;18221;38.704;0.152;2023-06-22T07:32:42;99035.63;;;29.91;30.19
10176;BME280;18221;38.704;0.152;2023-06-22T07:35:10;99041.19;;;30.07;30.29
10176;BME280;18221;38.704;0.152;2023-06-22T07:37:38;99045.34;;;30.14;30.75
10176;BME280;18221;38.704;0.152;2023-06-22T07:40:09;99041.50;;;30.10;30.41
10176;BME280;18221;38.704;0.152;2023-06-22T07:42:37;99046.13;;;30.05;30.37
10176;BME280;18221;38.704;0.152;2023-06-22T07:45:07;99050.56;;;30.16;30.05
10176;BME280;18221;38.704;0.152;2023-06-22T07:47:35;99055.28;;;30.30;30.13
10176;BME280;18221;38.704;0.152;2023-06-22T07:50:05;99050.44;;;30.37;29.83
10176;BME280;18221;38.704;0.152;2023-06-22T07:52:33;99043.06;;;30.48;29.44
10176;BME280;18221;38.704;0.152;2023-06-22T07:55:01;99050.22;;;30.54;29.89
10176;BME280;18221;38.704;0.152;2023-06-22T07:57:31;99043.13;;;30.58;29.19
10176;BME280;18221;38.704;0.152;2023-06-22T08:00:05;99048.91;;;30.67;29.73
10176;BME280;18221;38.704;0.152;2023-06-22T08:02:42;99044.03;;;30.84;29.00
10176;BME280;18221;38.704;0.152;2023-06-22T08:05:11;99045.69;;;30.85;28.46
10176;BME280;18221;38.704;0.152;2023-06-22T08:07:39;99054.56;;;31.07;28.64
10176;BME280;18221;38.704;0.152;2023-06-22T08:10:11;99055.94;;;31.25;27.69
10176;BME280;18221;38.704;0.152;2023-06-22T08:12:41;99062.31;;;31.45;27.26
10176;BME280;18221;38.704;0.152;2023-06-22T08:15:09;99056.28;;;32.04;26.94
10176;BME280;18221;38.704;0.152;2023-06-22T08:17:37;99058.34;;;32.47;26.09
10176;BME280;18221;38.704;0.152;2023-06-22T08:20:07;99068.75;;;32.60;25.33
10176;BME280;18221;38.704;0.152;2023-06-22T08:22:38;99061.13;;;33.11;25.08
10176;BME280;18221;38.704;0.152;2023-06-22T08:25:07;99061.66;;;33.52;24.04
10176;BME280;18221;38.704;0.152;2023-06-22T08:27:36;99064.50;;;32.88;23.04
10176;BME280;18221;38.704;0.152;2023-06-22T08:30:07;99065.75;;;33.16;22.41
10176;BME280;18221;38.704;0.152;2023-06-22T08:32:37;99067.56;;;33.69;22.12
10176;BME280;18221;38.704;0.152;2023-06-22T08:35:06;99068.88;;;34.05;21.84
10176;BME280;18221;38.704;0.152;2023-06-22T08:37:34;99068.56;;;34.41;20.99
10176;BME280;18221;38.704;0.152;2023-06-22T08:40:05;99071.34;;;34.64;20.70
10176;BME280;18221;38.704;0.152;2023-06-22T08:42:36;99067.72;;;34.40;21.02
10176;BME280;18221;38.704;0.152;2023-06-22T08:45:07;99061.75;;;34.81;20.47
10176;BME280;18221;38.704;0.152;2023-06-22T08:47:36;99066.69;;;35.77;19.94
10176;BME280;18221;38.704;0.152;2023-06-22T08:50:06;99073.34;;;36.08;19.04
10176;BME280;18221;38.704;0.152;2023-06-22T08:52:35;99075.84;;;36.50;18.62
10176;BME280;18221;38.704;0.152;2023-06-22T08:55:09;99071.31;;;36.82;18.45
10176;BME280;18221;38.704;0.152;2023-06-22T08:57:37;99069.13;;;37.78;19.43
10176;BME280;18221;38.704;0.152;2023-06-22T09:00:10;99084.78;;;38.26;23.48
10176;BME280;18221;38.704;0.152;2023-06-22T09:02:45;99072.13;;;38.90;23.76
10176;BME280;18221;38.704;0.152;2023-06-22T09:05:14;99077.06;;;38.94;22.74
10176;BME280;18221;38.704;0.152;2023-06-22T09:07:42;99080.72;;;38.02;23.93
10176;BME280;18221;38.704;0.152;2023-06-22T09:10:11;99080.81;;;37.88;24.80
10176;BME280;18221;38.704;0.152;2023-06-22T09:12:40;99076.13;;;37.17;25.81
10176;BME280;18221;38.704;0.152;2023-06-22T09:15:10;99084.75;;;36.88;25.83
10176;BME280;18221;38.704;0.152;2023-06-22T09:17:46;99083.59;;;36.21;26.62
10176;BME280;18221;38.704;0.152;2023-06-22T09:20:14;99082.28;;;35.49;27.48
10176;BME280;18221;38.704;0.152;2023-06-22T09:22:42;99086.50;;;35.04;27.01
10176;BME280;18221;38.704;0.152;2023-06-22T09:25:10;99091.47;;;34.12;29.80
10176;BME280;18221;38.704;0.152;2023-06-22T09:27:39;99094.88;;;33.99;29.82
10176;BME280;18221;38.704;0.152;2023-06-22T09:30:09;99088.19;;;34.05;30.24
10176;BME280;18221;38.704;0.152;2023-06-22T09:32:37;99097.22;;;33.82;30.83
10176;BME280;18221;38.704;0.152;2023-06-22T09:35:07;99095.59;;;33.81;31.08
10176;BME280;18221;38.704;0.152;2023-06-22T09:37:35;99093.69;;;33.77;30.94
10176;BME280;18221;38.704;0.152;2023-06-22T09:40:05;99100.25;;;33.81;31.85
10176;BME280;18221;38.704;0.152;2023-06-22T09:42:36;99095.88;;;33.36;34.25
10176;BME280;18221;38.704;0.152;2023-06-22T09:45:06;99094.59;;;33.23;34.84
10176;BME280;18221;38.704;0.152;2023-06-22T09:47:36;99092.16;;;33.17;34.84
10176;BME280;18221;38.704;0.152;2023-06-22T09:50:05;99091.63;;;33.15;35.14
10176;BME280;18221;38.704;0.152;2023-06-22T09:52:33;99103.75;;;33.04;35.32
10176;BME280;18221;38.704;0.152;2023-06-22T09:55:01;99089.38;;;33.22;34.59
10176;BME280;18221;38.704;0.152;2023-06-22T09:57:30;99098.75;;;33.21;34.77
10176;BME280;18221;38.704;0.152;2023-06-22T09:59:58;99093.25;;;33.21;33.59
10176;BME280;18221;38.704;0.152;2023-06-22T10:02:26;99097.75;;;32.96;33.94
10176;BME280;18221;38.704;0.152;2023-06-22T10:04:56;99092.19;;;33.12;33.85
10176;BME280;18221;38.704;0.152;2023-06-22T10:07:24;99094.69;;;33.08;33.03
10176;BME280;18221;38.704;0.152;2023-06-22T10:09:52;99100.50;;;32.96;32.18
10176;BME280;18221;38.704;0.152;2023-06-22T10:12:19;99097.22;;;32.94;31.08
10176;BME280;18221;38.704;0.152;2023-06-22T10:14:47;99094.38;;;33.15;30.75
10176;BME280;18221;38.704;0.152;2023-06-22T10:17:15;99101.31;;;32.97;31.87
10176;BME280;18221;38.704;0.152;2023-06-22T10:19:43;99109.41;;;32.73;31.43
10176;BME280;18221;38.704;0.152;2023-06-22T10:22:13;99105.16;;;32.96;31.77
10176;BME280;18221;38.704;0.152;2023-06-22T10:24:41;99100.41;;;33.17;30.05
10176;BME280;18221;38.704;0.152;2023-06-22T10:27:10;99104.78;;;33.23;29.51
10176;BME280;18221;38.704;0.152;2023-06-22T10:29:38;99105.34;;;33.20;29.63
10176;BME280;18221;38.704;0.152;2023-06-22T10:32:08;99107.16;;;32.80;30.01
10176;BME280;18221;38.704;0.152;2023-06-22T10:34:36;99106.03;;;32.91;30.77
10176;BME280;18221;38.704;0.152;2023-06-22T10:37:05;99106.84;;;32.92;30.03
10176;BME280;18221;38.704;0.152;2023-06-22T10:39:34;99109.91;;;32.85;30.20
10176;BME280;18221;38.704;0.152;2023-06-22T10:42:03;99106.09;;;32.76;30.77
10176;BME280;18221;38.704;0.152;2023-06-22T10:44:31;99108.94;;;32.56;29.95
10176;BME280;18221;38.704;0.152;2023-06-22T10:46:59;99115.41;;;32.80;31.28
10176;BME280;18221;38.704;0.152;2023-06-22T10:49:27;99123.44;;;32.77;29.49
10176;BME280;18221;38.704;0.152;2023-06-22T10:51:55;99117.69;;;32.63;30.31
10176;BME280;18221;38.704;0.152;2023-06-22T10:54:23;99125.38;;;32.71;30.36
10176;BME280;18221;38.704;0.152;2023-06-22T10:56:52;99117.09;;;32.76;30.14
10176;BME280;18221;38.704;0.152;2023-06-22T10:59:20;99119.31;;;32.74;30.22
10176;BME280;18221;38.704;0.152;2023-06-22T11:01:50;99132.97;;;32.94;30.02
10176;BME280;18221;38.704;0.152;2023-06-22T11:04:18;99128.00;;;32.96;29.33
10176;BME280;18221;38.704;0.152;2023-06-22T11:06:47;99128.50;;;33.04;28.50
10176;BME280;18221;38.704;0.152;2023-06-22T11:09:15;99123.38;;;32.87;29.54
10176;BME280;18221;38.704;0.152;2023-06-22T11:11:46;99127.53;;;32.84;29.95
10176;BME280;18221;38.704;0.152;2023-06-22T11:14:16;99127.47;;;32.94;29.13
10176;BME280;18221;38.704;0.152;2023-06-22T11:16:44;99126.09;;;32.92;29.33
10176;BME280;18221;38.704;0.152;2023-06-22T11:19:13;99127.97;;;33.02;28.67
10176;BME280;18221;38.704;0.152;2023-06-22T11:21:40;99130.19;;;33.00;27.28
10176;BME280;18221;38.704;0.152;2023-06-22T11:24:09;99132.59;;;33.21;27.33
10176;BME280;18221;38.704;0.152;2023-06-22T11:26:37;99122.13;;;33.23;27.68
10176;BME280;18221;38.704;0.152;2023-06-22T11:29:05;99125.13;;;33.22;27.65
10176;BME280;18221;38.704;0.152;2023-06-22T11:31:36;99128.47;;;33.24;27.28
10176;BME280;18221;38.704;0.152;2023-06-22T11:34:04;99122.97;;;33.19;26.15
10176;BME280;18221;38.704;0.152;2023-06-22T11:36:32;99132.16;;;32.94;26.46
10176;BME280;18221;38.704;0.152;2023-06-22T11:39:01;99129.09;;;33.01;26.83
10176;BME280;18221;38.704;0.152;2023-06-22T11:41:29;99127.69;;;33.13;26.51
10176;BME280;18221;38.704;0.152;2023-06-22T11:43:57;99129.56;;;33.23;26.67
10176;BME280;18221;38.704;0.152;2023-06-22T11:46:25;99122.06;;;33.33;25.22
10176;BME280;18221;38.704;0.152;2023-06-22T11:48:56;99124.88;;;33.67;25.22
10176;BME280;18221;38.704;0.152;2023-06-22T11:51:24;99124.88;;;33.67;25.61
10176;BME280;18221;38.704;0.152;2023-06-22T11:53:53;99128.72;;;33.71;25.75
10176;BME280;18221;38.704;0.152;2023-06-22T11:56:21;99127.56;;;33.77;26.46
10176;BME280;18221;38.704;0.152;2023-06-22T11:58:49;99119.78;;;33.84;26.25
10176;BME280;18221;38.704;0.152;2023-06-22T12:01:17;99120.50;;;33.95;26.50
10176;BME280;18221;38.704;0.152;2023-06-22T12:03:45;99115.66;;;34.15;26.96
10176;BME280;18221;38.704;0.152;2023-06-22T12:06:16;99125.78;;;34.25;26.99
10176;BME280;18221;38.704;0.152;2023-06-22T12:08:44;99126.09;;;34.19;27.09
10176;BME280;18221;38.704;0.152;2023-06-22T12:11:11;99116.09;;;33.99;27.58
10176;BME280;18221;38.704;0.152;2023-06-22T12:13:39;99122.63;;;34.08;26.93
10176;BME280;18221;38.704;0.152;2023-06-22T12:16:07;99121.84;;;34.02;26.08
10176;BME280;18221;38.704;0.152;2023-06-22T12:18:35;99115.59;;;34.26;26.42
10176;BME280;18221;38.704;0.152;2023-06-22T12:21:06;99123.91;;;34.44;25.60
10176;BME280;18221;38.704;0.152;2023-06-22T12:23:36;99123.69;;;34.41;26.05
10176;BME280;18221;38.704;0.152;2023-06-22T12:26:03;99120.06;;;34.45;25.45
10176;BME280;18221;38.704;0.152;2023-06-22T12:28:31;99123.44;;;34.66;25.38
10176;BME280;18221;38.704;0.152;2023-06-22T12:30:59;99123.19;;;34.86;24.68
10176;BME280;18221;38.704;0.152;2023-06-22T12:33:27;99120.47;;;34.81;24.77
10176;BME280;18221;38.704;0.152;2023-06-22T12:35:56;99126.31;;;34.80;24.58
10176;BME280;18221;38.704;0.152;2023-06-22T12:38:24;99122.91;;;34.88;24.25
10176;BME280;18221;38.704;0.152;2023-06-22T12:40:53;99113.38;;;34.99;23.16
10176;BME280;18221;38.704;0.152;2023-06-22T12:43:21;99116.34;;;35.02;23.45
10176;BME280;18221;38.704;0.152;2023-06-22T12:45:49;99109.09;;;34.88;23.37
10176;BME280;18221;38.704;0.152;2023-06-22T12:48:17;99106.16;;;34.79;23.44
10176;BME280;18221;38.704;0.152;2023-06-22T12:50:46;99115.53;;;35.02;23.33
10176;BME280;18221;38.704;0.152;2023-06-22T12:53:14;99113.03;;;35.05;23.19
10176;BME280;18221;38.704;0.152;2023-06-22T12:55:42;99116.84;;;35.09;22.66
10176;BME280;18221;38.704;0.152;2023-06-22T12:58:11;99107.69;;;35.14;22.36
10176;BME280;18221;38.704;0.152;2023-06-22T13:00:39;99110.88;;;35.40;22.55
10176;BME280;18221;38.704;0.152;2023-06-22T13:03:07;99107.63;;;35.38;22.89
10176;BME280;18221;38.704;0.152;2023-06-22T13:05:35;99108.88;;;35.45;21.67
10176;BME280;18221;38.704;0.152;2023-06-22T13:08:03;99108.44;;;35.38;22.01
10176;BME280;18221;38.704;0.152;2023-06-22T13:10:31;99112.38;;;35.51;21.77